Ellisville, Missouri
Current Conditions -  °F | °C
As of 9:54 PM on Friday 28 Nov 2014 (Local Time) from KSUS Reporting Station
Clear Clear  
Wind Chill: 44°   Ceiling: Unl
Heat Index: 44°   Visibility: 10mi
Dew Point: 33°   Wind: 3mph
Humidity: 65%   Direction: 140°SE
Pressure: 29.89"   Gusts: NA
Location:  38.5691°N, 90.5462°W
Report Text: KSUS 290354Z 14003KT 10SM CLR 07/01 A2989 RMK AO2 SLP126 T00670006
Loading
Personal Weather Stations






























Interactive Weather Map New forecast layout! Learn more

10-Day Weather Forecast

Advertisements
Track Severe Weather on mobile